sensor_id;sensor_type;location;lat;lon;timestamp;pressure;altitude;pressure_sealevel;temperature;humidity
60015;BME280;45867;52.480;6.056;2023-04-26T00:01:58;101773.44;;;1.84;100.00
60015;BME280;45867;52.480;6.056;2023-04-26T00:04:24;101777.66;;;1.85;100.00
60015;BME280;45867;52.480;6.056;2023-04-26T00:06:50;101769.19;;;1.83;100.00
60015;BME280;45867;52.480;6.056;2023-04-26T00:09:16;101789.53;;;2.02;100.00
60015;BME280;45867;52.480;6.056;2023-04-26T00:11:43;101764.47;;;1.93;100.00
60015;BME280;45867;52.480;6.056;2023-04-26T00:14:09;101769.16;;;1.97;100.00
60015;BME280;45867;52.480;6.056;2023-04-26T00:16:35;101788.28;;;2.19;100.00
60015;BME280;45867;52.480;6.056;2023-04-26T00:19:01;101791.13;;;2.25;100.00
60015;BME280;45867;52.480;6.056;2023-04-26T00:21:26;101796.25;;;2.33;100.00
60015;BME280;45867;52.480;6.056;2023-04-26T00:23:52;101789.63;;;2.37;100.00
60015;BME280;45867;52.480;6.056;2023-04-26T00:26:18;101775.13;;;2.34;100.00
60015;BME280;45867;52.480;6.056;2023-04-26T00:28:43;101793.78;;;2.53;100.00
60015;BME280;45867;52.480;6.056;2023-04-26T00:31:13;101759.75;;;2.46;100.00
60015;BME280;45867;52.480;6.056;2023-04-26T00:33:39;101754.50;;;2.46;100.00
60015;BME280;45867;52.480;6.056;2023-04-26T00:36:07;101772.09;;;2.59;100.00
60015;BME280;45867;52.480;6.056;2023-04-26T00:38:32;101764.03;;;2.54;100.00
60015;BME280;45867;52.480;6.056;2023-04-26T00:40:57;101754.78;;;2.58;100.00
60015;BME280;45867;52.480;6.056;2023-04-26T00:43:25;101758.72;;;2.47;100.00
60015;BME280;45867;52.480;6.056;2023-04-26T00:45:51;101771.69;;;2.55;100.00
60015;BME280;45867;52.480;6.056;2023-04-26T00:48:19;101752.06;;;2.44;100.00
60015;BME280;45867;52.480;6.056;2023-04-26T00:50:47;101772.03;;;2.46;100.00
60015;BME280;45867;52.480;6.056;2023-04-26T00:53:13;101773.50;;;2.33;100.00
60015;BME280;45867;52.480;6.056;2023-04-26T00:55:42;101776.69;;;2.29;100.00
60015;BME280;45867;52.480;6.056;2023-04-26T00:58:09;101777.25;;;2.24;100.00
60015;BME280;45867;52.480;6.056;2023-04-26T01:00:34;101765.13;;;2.16;100.00
60015;BME280;45867;52.480;6.056;2023-04-26T01:03:02;101757.81;;;2.12;100.00
60015;BME280;45867;52.480;6.056;2023-04-26T01:05:36;101766.34;;;2.42;100.00
60015;BME280;45867;52.480;6.056;2023-04-26T01:08:05;101740.13;;;2.35;100.00
60015;BME280;45867;52.480;6.056;2023-04-26T01:10:37;101739.94;;;2.37;100.00
60015;BME280;45867;52.480;6.056;2023-04-26T01:13:03;101764.22;;;2.52;100.00
60015;BME280;45867;52.480;6.056;2023-04-26T01:15:29;101755.19;;;2.55;100.00
60015;BME280;45867;52.480;6.056;2023-04-26T01:17:57;101749.53;;;2.51;100.00
60015;BME280;45867;52.480;6.056;2023-04-26T01:20:40;101779.31;;;2.78;100.00
60015;BME280;45867;52.480;6.056;2023-04-26T01:23:07;101771.81;;;2.75;100.00
60015;BME280;45867;52.480;6.056;2023-04-26T01:25:33;101753.22;;;2.63;100.00
60015;BME280;45867;52.480;6.056;2023-04-26T01:28:01;101771.41;;;2.72;100.00
60015;BME280;45867;52.480;6.056;2023-04-26T01:30:27;101752.81;;;2.60;100.00
60015;BME280;45867;52.480;6.056;2023-04-26T01:32:52;101761.09;;;2.42;100.00
60015;BME280;45867;52.480;6.056;2023-04-26T01:35:17;101771.41;;;2.43;100.00
60015;BME280;45867;52.480;6.056;2023-04-26T01:37:46;101763.31;;;2.38;100.00
60015;BME280;45867;52.480;6.056;2023-04-26T01:40:11;101743.88;;;2.26;100.00
60015;BME280;45867;52.480;6.056;2023-04-26T01:42:40;101760.56;;;2.25;100.00
60015;BME280;45867;52.480;6.056;2023-04-26T01:45:06;101754.22;;;2.13;100.00
60015;BME280;45867;52.480;6.056;2023-04-26T01:47:31;101767.09;;;2.14;100.00
60015;BME280;45867;52.480;6.056;2023-04-26T01:49:57;101762.75;;;2.00;100.00
60015;BME280;45867;52.480;6.056;2023-04-26T01:52:29;101773.84;;;2.02;100.00
60015;BME280;45867;52.480;6.056;2023-04-26T01:54:55;101752.84;;;1.95;100.00
60015;BME280;45867;52.480;6.056;2023-04-26T01:57:21;101769.22;;;2.04;100.00
60015;BME280;45867;52.480;6.056;2023-04-26T01:59:49;101748.91;;;1.85;100.00
60015;BME280;45867;52.480;6.056;2023-04-26T02:02:16;101754.28;;;1.98;100.00
60015;BME280;45867;52.480;6.056;2023-04-26T02:04:44;101772.13;;;1.94;100.00
60015;BME280;45867;52.480;6.056;2023-04-26T02:07:12;101755.50;;;1.81;100.00
60015;BME280;45867;52.480;6.056;2023-04-26T02:09:40;101783.41;;;1.95;100.00
60015;BME280;45867;52.480;6.056;2023-04-26T02:12:10;101768.25;;;1.90;100.00
60015;BME280;45867;52.480;6.056;2023-04-26T02:14:41;101770.81;;;1.84;100.00
60015;BME280;45867;52.480;6.056;2023-04-26T02:17:24;101755.16;;;1.69;100.00
60015;BME280;45867;52.480;6.056;2023-04-26T02:20:05;101754.63;;;1.73;100.00
60015;BME280;45867;52.480;6.056;2023-04-26T02:22:34;101765.13;;;1.59;100.00
60015;BME280;45867;52.480;6.056;2023-04-26T02:25:06;101755.38;;;1.52;100.00
60015;BME280;45867;52.480;6.056;2023-04-26T02:27:39;101768.00;;;1.49;100.00
60015;BME280;45867;52.480;6.056;2023-04-26T02:30:05;101769.59;;;1.50;100.00
60015;BME280;45867;52.480;6.056;2023-04-26T02:32:34;101747.22;;;1.41;100.00
60015;BME280;45867;52.480;6.056;2023-04-26T02:35:08;101767.19;;;1.48;100.00
60015;BME280;45867;52.480;6.056;2023-04-26T02:37:39;101764.31;;;1.43;100.00
60015;BME280;45867;52.480;6.056;2023-04-26T02:40:05;101761.00;;;1.35;100.00
60015;BME280;45867;52.480;6.056;2023-04-26T02:42:34;101762.25;;;1.39;100.00
60015;BME280;45867;52.480;6.056;2023-04-26T02:44:59;101746.06;;;1.28;100.00
60015;BME280;45867;52.480;6.056;2023-04-26T02:47:25;101737.59;;;1.26;100.00
60015;BME280;45867;52.480;6.056;2023-04-26T02:49:50;101759.72;;;1.45;100.00
60015;BME280;45867;52.480;6.056;2023-04-26T02:52:16;101736.22;;;1.30;100.00
60015;BME280;45867;52.480;6.056;2023-04-26T02:54:42;101756.03;;;1.40;100.00
60015;BME280;45867;52.480;6.056;2023-04-26T02:57:10;101745.13;;;1.36;100.00
60015;BME280;45867;52.480;6.056;2023-04-26T02:59:44;101750.28;;;1.29;100.00
60015;BME280;45867;52.480;6.056;2023-04-26T03:02:12;101730.66;;;1.19;100.00
60015;BME280;45867;52.480;6.056;2023-04-26T03:04:37;101742.47;;;1.15;100.00
60015;BME280;45867;52.480;6.056;2023-04-26T03:07:06;101747.34;;;1.18;100.00
60015;BME280;45867;52.480;6.056;2023-04-26T03:09:46;101762.53;;;1.29;100.00
60015;BME280;45867;52.480;6.056;2023-04-26T03:12:12;101749.56;;;1.21;100.00
60015;BME280;45867;52.480;6.056;2023-04-26T03:14:37;101751.66;;;1.10;100.00
60015;BME280;45867;52.480;6.056;2023-04-26T03:17:05;101758.22;;;1.06;100.00
60015;BME280;45867;52.480;6.056;2023-04-26T03:19:30;101743.19;;;0.94;100.00
60015;BME280;45867;52.480;6.056;2023-04-26T03:21:56;101759.03;;;1.07;100.00
60015;BME280;45867;52.480;6.056;2023-04-26T03:24:21;101760.00;;;1.06;100.00
60015;BME280;45867;52.480;6.056;2023-04-26T03:26:47;101744.16;;;0.93;100.00
60015;BME280;45867;52.480;6.056;2023-04-26T03:29:13;101768.22;;;1.18;100.00
60015;BME280;45867;52.480;6.056;2023-04-26T03:31:38;101733.09;;;1.05;100.00
60015;BME280;45867;52.480;6.056;2023-04-26T03:34:04;101733.47;;;1.02;100.00
60015;BME280;45867;52.480;6.056;2023-04-26T03:36:29;101732.47;;;1.03;100.00
60015;BME280;45867;52.480;6.056;2023-04-26T03:38:55;101747.16;;;1.04;100.00
60015;BME280;45867;52.480;6.056;2023-04-26T03:41:23;101720.88;;;0.91;100.00
60015;BME280;45867;52.480;6.056;2023-04-26T03:43:48;101743.25;;;1.00;100.00
60015;BME280;45867;52.480;6.056;2023-04-26T03:46:14;101723.94;;;0.80;100.00
60015;BME280;45867;52.480;6.056;2023-04-26T03:48:40;101736.59;;;0.83;100.00
60015;BME280;45867;52.480;6.056;2023-04-26T03:51:06;101716.25;;;0.63;100.00
60015;BME280;45867;52.480;6.056;2023-04-26T03:53:31;101717.06;;;0.64;100.00
60015;BME280;45867;52.480;6.056;2023-04-26T03:56:05;101722.81;;;0.59;100.00
60015;BME280;45867;52.480;6.056;2023-04-26T03:58:32;101714.09;;;0.52;100.00
60015;BME280;45867;52.480;6.056;2023-04-26T04:00:57;101717.50;;;0.53;100.00
60015;BME280;45867;52.480;6.056;2023-04-26T04:03:23;101731.44;;;0.60;100.00
60015;BME280;45867;52.480;6.056;2023-04-26T04:05:49;101723.09;;;0.64;100.00
60015;BME280;45867;52.480;6.056;2023-04-26T04:08:14;101742.44;;;0.70;100.00
60015;BME280;45867;52.480;6.056;2023-04-26T04:10:40;101740.38;;;0.65;100.00
60015;BME280;45867;52.480;6.056;2023-04-26T04:13:06;101722.06;;;0.51;100.00
60015;BME280;45867;52.480;6.056;2023-04-26T04:15:32;101732.88;;;0.48;100.00
60015;BME280;45867;52.480;6.056;2023-04-26T04:17:59;101739.25;;;0.60;100.00
60015;BME280;45867;52.480;6.056;2023-04-26T04:20:24;101750.91;;;0.72;100.00
60015;BME280;45867;52.480;6.056;2023-04-26T04:22:50;101723.72;;;0.66;100.00
60015;BME280;45867;52.480;6.056;2023-04-26T04:25:15;101761.66;;;1.07;100.00
60015;BME280;45867;52.480;6.056;2023-04-26T04:27:44;101727.44;;;1.02;100.00
60015;BME280;45867;52.480;6.056;2023-04-26T04:30:12;101730.75;;;1.10;100.00
60015;BME280;45867;52.480;6.056;2023-04-26T04:32:38;101740.03;;;1.13;100.00
60015;BME280;45867;52.480;6.056;2023-04-26T04:35:09;101755.34;;;1.31;100.00
60015;BME280;45867;52.480;6.056;2023-04-26T04:37:35;101760.81;;;1.36;100.00
60015;BME280;45867;52.480;6.056;2023-04-26T04:40:00;101743.09;;;1.31;100.00
60015;BME280;45867;52.480;6.056;2023-04-26T04:42:26;101751.09;;;1.45;100.00
60015;BME280;45867;52.480;6.056;2023-04-26T04:44:53;101734.16;;;1.41;100.00
60015;BME280;45867;52.480;6.056;2023-04-26T04:47:21;101725.31;;;1.42;100.00
60015;BME280;45867;52.480;6.056;2023-04-26T04:49:49;101749.81;;;1.55;100.00
60015;BME280;45867;52.480;6.056;2023-04-26T04:52:25;101737.09;;;1.52;100.00
60015;BME280;45867;52.480;6.056;2023-04-26T04:58:48;101740.06;;;1.64;100.00
60015;BME280;45867;52.480;6.056;2023-04-26T05:02:16;101767.84;;;1.87;100.00
60015;BME280;45867;52.480;6.056;2023-04-26T05:16:28;101745.75;;;2.11;100.00
60015;BME280;45867;52.480;6.056;2023-04-26T05:19:03;101765.41;;;2.28;100.00
60015;BME280;45867;52.480;6.056;2023-04-26T05:22:37;101748.25;;;2.19;100.00
60015;BME280;45867;52.480;6.056;2023-04-26T05:29:33;101767.97;;;2.43;100.00
60015;BME280;45867;52.480;6.056;2023-04-26T05:36:10;101747.03;;;2.43;100.00
60015;BME280;45867;52.480;6.056;2023-04-26T05:50:01;101783.63;;;2.93;100.00
60015;BME280;45867;52.480;6.056;2023-04-26T05:56:55;101765.09;;;3.77;100.00
60015;BME280;45867;52.480;6.056;2023-04-26T05:59:36;101769.34;;;3.85;100.00
60015;BME280;45867;52.480;6.056;2023-04-26T06:05:28;101772.22;;;3.42;100.00
60015;BME280;45867;52.480;6.056;2023-04-26T06:09:15;101778.44;;;3.34;100.00
60015;BME280;45867;52.480;6.056;2023-04-26T06:26:12;101798.94;;;3.72;100.00
60015;BME280;45867;52.480;6.056;2023-04-26T06:28:49;101798.56;;;3.82;100.00
60015;BME280;45867;52.480;6.056;2023-04-26T06:32:07;101809.41;;;4.60;100.00
60015;BME280;45867;52.480;6.056;2023-04-26T06:35:09;101811.03;;;4.81;100.00
60015;BME280;45867;52.480;6.056;2023-04-26T06:37:55;101837.69;;;4.71;100.00
60015;BME280;45867;52.480;6.056;2023-04-26T06:49:55;101852.41;;;4.52;100.00
60015;BME280;45867;52.480;6.056;2023-04-26T06:56:12;101844.13;;;4.82;100.00
60015;BME280;45867;52.480;6.056;2023-04-26T06:59:09;101862.06;;;5.31;100.00
60015;BME280;45867;52.480;6.056;2023-04-26T07:11:40;101884.78;;;9.17;100.00
60015;BME280;45867;52.480;6.056;2023-04-26T07:14:52;101897.78;;;8.95;100.00
60015;BME280;45867;52.480;6.056;2023-04-26T07:17:29;101889.59;;;8.13;100.00
60015;BME280;45867;52.480;6.056;2023-04-26T07:20:20;101893.06;;;7.95;100.00
60015;BME280;45867;52.480;6.056;2023-04-26T07:23:28;101907.81;;;8.03;100.00
60015;BME280;45867;52.480;6.056;2023-04-26T07:26:31;101898.22;;;7.90;100.00
60015;BME280;45867;52.480;6.056;2023-04-26T07:29:07;101897.44;;;7.27;100.00
60015;BME280;45867;52.480;6.056;2023-04-26T07:31:33;101897.69;;;7.26;100.00
60015;BME280;45867;52.480;6.056;2023-04-26T07:34:17;101899.50;;;7.25;100.00
60015;BME280;45867;52.480;6.056;2023-04-26T07:36:45;101919.34;;;7.53;100.00
60015;BME280;45867;52.480;6.056;2023-04-26T07:39:27;101921.38;;;7.51;100.00
60015;BME280;45867;52.480;6.056;2023-04-26T07:42:25;101901.56;;;7.23;100.00
60015;BME280;45867;52.480;6.056;2023-04-26T07:45:39;101908.72;;;6.91;100.00
60015;BME280;45867;52.480;6.056;2023-04-26T07:52:40;101924.72;;;7.40;100.00
60015;BME280;45867;52.480;6.056;2023-04-26T08:02:51;101928.94;;;8.03;100.00
60015;BME280;45867;52.480;6.056;2023-04-26T08:15:04;101930.91;;;6.77;100.00
60015;BME280;45867;52.480;6.056;2023-04-26T08:18:00;101925.78;;;6.82;100.00
60015;BME280;45867;52.480;6.056;2023-04-26T08:28:02;101943.19;;;7.40;100.00
60015;BME280;45867;52.480;6.056;2023-04-26T08:31:23;101933.66;;;7.39;100.00
60015;BME280;45867;52.480;6.056;2023-04-26T08:37:28;101946.47;;;7.35;100.00
60015;BME280;45867;52.480;6.056;2023-04-26T08:40:23;101934.81;;;6.99;100.00
60015;BME280;45867;52.480;6.056;2023-04-26T08:43:19;101942.91;;;6.98;100.00
60015;BME280;45867;52.480;6.056;2023-04-26T08:46:23;101932.59;;;6.71;100.00
60015;BME280;45867;52.480;6.056;2023-04-26T08:48:57;101931.91;;;6.76;100.00
60015;BME280;45867;52.480;6.056;2023-04-26T08:51:29;101934.31;;;6.52;100.00
60015;BME280;45867;52.480;6.056;2023-04-26T08:53:58;101944.25;;;6.43;100.00
60015;BME280;45867;52.480;6.056;2023-04-26T08:56:24;101943.09;;;6.33;100.00
60015;BME280;45867;52.480;6.056;2023-04-26T08:58:58;101954.56;;;6.52;100.00
60015;BME280;45867;52.480;6.056;2023-04-26T09:01:36;101956.38;;;6.58;100.00
60015;BME280;45867;52.480;6.056;2023-04-26T09:04:06;101936.03;;;6.33;100.00
60015;BME280;45867;52.480;6.056;2023-04-26T09:06:36;101938.69;;;6.27;100.00
60015;BME280;45867;52.480;6.056;2023-04-26T09:09:07;101932.56;;;6.33;100.00
60015;BME280;45867;52.480;6.056;2023-04-26T09:11:55;101940.69;;;6.31;100.00
60015;BME280;45867;52.480;6.056;2023-04-26T09:14:58;101932.84;;;6.18;100.00
60015;BME280;45867;52.480;6.056;2023-04-26T09:17:47;101930.34;;;6.30;100.00
60015;BME280;45867;52.480;6.056;2023-04-26T09:20:19;101937.88;;;6.64;100.00
60015;BME280;45867;52.480;6.056;2023-04-26T09:22:50;101924.25;;;6.74;100.00
60015;BME280;45867;52.480;6.056;2023-04-26T09:25:35;101927.44;;;6.83;100.00
60015;BME280;45867;52.480;6.056;2023-04-26T09:28:19;101926.91;;;6.99;100.00
60015;BME280;45867;52.480;6.056;2023-04-26T09:31:13;101937.19;;;8.06;100.00
60015;BME280;45867;52.480;6.056;2023-04-26T09:33:59;101923.09;;;10.02;100.00
60015;BME280;45867;52.480;6.056;2023-04-26T09:37:14;101949.78;;;11.37;100.00
60015;BME280;45867;52.480;6.056;2023-04-26T09:39:51;101946.81;;;10.83;100.00
60015;BME280;45867;52.480;6.056;2023-04-26T09:42:16;101946.84;;;10.37;100.00
60015;BME280;45867;52.480;6.056;2023-04-26T09:48:25;101958.59;;;9.19;100.00
60015;BME280;45867;52.480;6.056;2023-04-26T09:51:13;101935.63;;;8.65;100.00
60015;BME280;45867;52.480;6.056;2023-04-26T09:53:50;101952.44;;;8.71;100.00
60015;BME280;45867;52.480;6.056;2023-04-26T09:56:19;101930.56;;;8.34;100.00
60015;BME280;45867;52.480;6.056;2023-04-26T10:01:58;101936.69;;;7.97;100.00
60015;BME280;45867;52.480;6.056;2023-04-26T10:08:18;101936.56;;;8.59;100.00
60015;BME280;45867;52.480;6.056;2023-04-26T10:10:48;101954.75;;;8.91;100.00
60015;BME280;45867;52.480;6.056;2023-04-26T10:13:18;101939.56;;;8.86;100.00
60015;BME280;45867;52.480;6.056;2023-04-26T10:15:53;101934.66;;;8.90;100.00
60015;BME280;45867;52.480;6.056;2023-04-26T10:18:33;101940.75;;;9.02;100.00
60015;BME280;45867;52.480;6.056;2023-04-26T10:21:06;101939.75;;;9.03;100.00
60015;BME280;45867;52.480;6.056;2023-04-26T10:23:38;101939.88;;;9.08;100.00
60015;BME280;45867;52.480;6.056;2023-04-26T10:26:04;101935.72;;;9.01;100.00
60015;BME280;45867;52.480;6.056;2023-04-26T10:31:08;101949.63;;;9.08;100.00
60015;BME280;45867;52.480;6.056;2023-04-26T10:33:33;101942.94;;;9.05;100.00
60015;BME280;45867;52.480;6.056;2023-04-26T10:36:01;101959.63;;;9.18;100.00
60015;BME280;45867;52.480;6.056;2023-04-26T10:38:30;101948.88;;;8.77;100.00
60015;BME280;45867;52.480;6.056;2023-04-26T10:41:33;101949.47;;;8.79;100.00
60015;BME280;45867;52.480;6.056;2023-04-26T10:47:28;101955.13;;;8.53;100.00
60015;BME280;45867;52.480;6.056;2023-04-26T10:51:06;101962.72;;;9.03;100.00
60015;BME280;45867;52.480;6.056;2023-04-26T10:56:59;101935.97;;;9.34;100.00
60015;BME280;45867;52.480;6.056;2023-04-26T11:03:09;101942.63;;;9.25;100.00
60015;BME280;45867;52.480;6.056;2023-04-26T11:06:09;101932.38;;;9.64;100.00
60015;BME280;45867;52.480;6.056;2023-04-26T11:08:41;101962.50;;;9.75;100.00
60015;BME280;45867;52.480;6.056;2023-04-26T11:11:11;101946.75;;;9.56;100.00
60015;BME280;45867;52.480;6.056;2023-04-26T11:13:41;101944.19;;;9.73;100.00
60015;BME280;45867;52.480;6.056;2023-04-26T11:18:43;101932.94;;;9.66;100.00
60015;BME280;45867;52.480;6.056;2023-04-26T11:21:21;101955.28;;;9.47;100.00
60015;BME280;45867;52.480;6.056;2023-04-26T11:23:55;101928.44;;;9.78;100.00
60015;BME280;45867;52.480;6.056;2023-04-26T11:26:31;101937.34;;;9.25;100.00
60015;BME280;45867;52.480;6.056;2023-04-26T11:28:57;101950.91;;;9.41;100.00
60015;BME280;45867;52.480;6.056;2023-04-26T11:31:25;101950.34;;;9.39;100.00
60015;BME280;45867;52.480;6.056;2023-04-26T11:33:51;101949.44;;;9.33;100.00
60015;BME280;45867;52.480;6.056;2023-04-26T11:36:37;101958.75;;;9.47;100.00
60015;BME280;45867;52.480;6.056;2023-04-26T11:39:02;101953.88;;;9.68;100.00
60015;BME280;45867;52.480;6.056;2023-04-26T11:41:43;101967.69;;;9.70;100.00
60015;BME280;45867;52.480;6.056;2023-04-26T11:44:12;101951.47;;;9.66;100.00
60015;BME280;45867;52.480;6.056;2023-04-26T11:46:42;101956.53;;;10.20;100.00
60015;BME280;45867;52.480;6.056;2023-04-26T11:49:07;101948.47;;;10.55;100.00
60015;BME280;45867;52.480;6.056;2023-04-26T11:51:36;101954.03;;;10.13;97.09
60015;BME280;45867;52.480;6.056;2023-04-26T11:54:06;101945.75;;;10.10;93.22
60015;BME280;45867;52.480;6.056;2023-04-26T11:56:43;101957.91;;;10.34;95.27
60015;BME280;45867;52.480;6.056;2023-04-26T11:59:48;101964.19;;;10.05;95.75
60015;BME280;45867;52.480;6.056;2023-04-26T12:02:22;101945.25;;;9.72;95.93
60015;BME280;45867;52.480;6.056;2023-04-26T12:04:58;101974.88;;;10.10;100.00
60015;BME280;45867;52.480;6.056;2023-04-26T12:07:44;101967.22;;;9.73;100.00
60015;BME280;45867;52.480;6.056;2023-04-26T12:12:50;101953.66;;;10.21;99.70
60015;BME280;45867;52.480;6.056;2023-04-26T12:15:21;101953.81;;;10.15;98.93
60015;BME280;45867;52.480;6.056;2023-04-26T12:18:15;101977.59;;;10.27;95.55
60015;BME280;45867;52.480;6.056;2023-04-26T12:20:46;101953.31;;;9.77;93.21
60015;BME280;45867;52.480;6.056;2023-04-26T12:23:24;101980.03;;;10.16;91.46
60015;BME280;45867;52.480;6.056;2023-04-26T12:25:55;101967.69;;;9.70;90.83
60015;BME280;45867;52.480;6.056;2023-04-26T12:31:20;101968.34;;;10.41;90.33
60015;BME280;45867;52.480;6.056;2023-04-26T12:33:48;101966.69;;;10.80;86.15
60015;BME280;45867;52.480;6.056;2023-04-26T12:36:16;101970.94;;;10.81;85.84
60015;BME280;45867;52.480;6.056;2023-04-26T12:38:41;101953.50;;;12.19;79.20
60015;BME280;45867;52.480;6.056;2023-04-26T12:41:18;101956.91;;;13.75;63.97
60015;BME280;45867;52.480;6.056;2023-04-26T12:43:52;101955.66;;;13.98;53.09
60015;BME280;45867;52.480;6.056;2023-04-26T12:46:28;101957.88;;;14.22;47.69
60015;BME280;45867;52.480;6.056;2023-04-26T12:49:01;101957.59;;;13.50;51.64
60015;BME280;45867;52.480;6.056;2023-04-26T12:51:37;101964.94;;;12.69;58.86
60015;BME280;45867;52.480;6.056;2023-04-26T12:54:08;101970.97;;;12.91;66.68
60015;BME280;45867;52.480;6.056;2023-04-26T12:56:45;101955.88;;;13.02;63.20
60015;BME280;45867;52.480;6.056;2023-04-26T12:59:13;101971.00;;;13.28;66.11
60015;BME280;45867;52.480;6.056;2023-04-26T13:01:41;101975.28;;;12.43;63.84
60015;BME280;45867;52.480;6.056;2023-04-26T13:04:11;101956.66;;;12.97;74.64
60015;BME280;45867;52.480;6.056;2023-04-26T13:06:37;101960.00;;;12.82;66.01
60015;BME280;45867;52.480;6.056;2023-04-26T13:09:05;101971.34;;;12.73;72.73
60015;BME280;45867;52.480;6.056;2023-04-26T13:11:32;101960.25;;;12.05;73.52
60015;BME280;45867;52.480;6.056;2023-04-26T13:13:58;101956.53;;;12.06;77.35
60015;BME280;45867;52.480;6.056;2023-04-26T13:16:24;101957.19;;;10.84;78.74
60015;BME280;45867;52.480;6.056;2023-04-26T13:18:50;101981.56;;;11.15;82.12
60015;BME280;45867;52.480;6.056;2023-04-26T13:21:15;101967.25;;;11.16;85.86
60015;BME280;45867;52.480;6.056;2023-04-26T13:23:42;101981.41;;;10.59;86.34
60015;BME280;45867;52.480;6.056;2023-04-26T13:26:08;101967.47;;;10.81;91.03
60015;BME280;45867;52.480;6.056;2023-04-26T13:28:38;101971.50;;;10.26;92.66
60015;BME280;45867;52.480;6.056;2023-04-26T13:31:04;101964.28;;;10.10;92.50
60015;BME280;45867;52.480;6.056;2023-04-26T13:33:30;101968.50;;;9.82;94.96
60015;BME280;45867;52.480;6.056;2023-04-26T13:35:56;101969.91;;;9.49;96.82
60015;BME280;45867;52.480;6.056;2023-04-26T13:38:22;101994.06;;;9.41;97.82
60015;BME280;45867;52.480;6.056;2023-04-26T13:40:50;101977.00;;;9.49;96.45
60015;BME280;45867;52.480;6.056;2023-04-26T13:43:16;101999.81;;;9.62;98.94
60015;BME280;45867;52.480;6.056;2023-04-26T13:45:44;101972.28;;;9.04;100.00
60015;BME280;45867;52.480;6.056;2023-04-26T13:48:15;101983.44;;;9.29;100.00
60015;BME280;45867;52.480;6.056;2023-04-26T13:50:49;101985.41;;;9.22;100.00
60015;BME280;45867;52.480;6.056;2023-04-26T13:53:15;101976.34;;;9.42;100.00
60015;BME280;45867;52.480;6.056;2023-04-26T13:55:43;101972.06;;;9.41;100.00
60015;BME280;45867;52.480;6.056;2023-04-26T13:58:08;102001.75;;;9.54;100.00
60015;BME280;45867;52.480;6.056;2023-04-26T14:00:34;101965.72;;;9.06;100.00
60015;BME280;45867;52.480;6.056;2023-04-26T14:03:00;101976.91;;;9.32;100.00
60015;BME280;45867;52.480;6.056;2023-04-26T14:05:25;101988.16;;;9.16;100.00
60015;BME280;45867;52.480;6.056;2023-04-26T14:07:58;101969.63;;;8.92;100.00
60015;BME280;45867;52.480;6.056;2023-04-26T14:10:24;101981.66;;;8.88;100.00
60015;BME280;45867;52.480;6.056;2023-04-26T14:12:52;101971.88;;;8.88;100.00
60015;BME280;45867;52.480;6.056;2023-04-26T14:15:19;101972.06;;;9.17;100.00
60015;BME280;45867;52.480;6.056;2023-04-26T14:17:44;101982.25;;;9.02;100.00
60015;BME280;45867;52.480;6.056;2023-04-26T14:20:29;101984.91;;;9.14;100.00
60015;BME280;45867;52.480;6.056;2023-04-26T14:22:57;101989.19;;;9.15;100.00
60015;BME280;45867;52.480;6.056;2023-04-26T14:25:22;101974.66;;;8.94;100.00
60015;BME280;45867;52.480;6.056;2023-04-26T14:27:52;101991.50;;;9.23;100.00
60015;BME280;45867;52.480;6.056;2023-04-26T14:30:20;101984.31;;;9.00;100.00
60015;BME280;45867;52.480;6.056;2023-04-26T14:32:46;101988.63;;;9.24;100.00
60015;BME280;45867;52.480;6.056;2023-04-26T14:35:11;101970.25;;;9.53;100.00
60015;BME280;45867;52.480;6.056;2023-04-26T14:37:39;101979.53;;;9.79;100.00
60015;BME280;45867;52.480;6.056;2023-04-26T14:40:09;101993.94;;;9.36;100.00
60015;BME280;45867;52.480;6.056;2023-04-26T14:42:43;101972.97;;;9.46;100.00
60015;BME280;45867;52.480;6.056;2023-04-26T14:45:13;101973.53;;;9.84;100.00
60015;BME280;45867;52.480;6.056;2023-04-26T14:47:38;101968.22;;;10.07;100.00
60015;BME280;45867;52.480;6.056;2023-04-26T14:50:04;101968.03;;;9.85;100.00
60015;BME280;45867;52.480;6.056;2023-04-26T14:52:40;101959.66;;;10.17;100.00
60015;BME280;45867;52.480;6.056;2023-04-26T14:55:18;101970.31;;;10.34;100.00
60015;BME280;45867;52.480;6.056;2023-04-26T14:57:49;101956.19;;;10.28;100.00
60015;BME280;45867;52.480;6.056;2023-04-26T15:00:25;101966.13;;;10.50;100.00
60015;BME280;45867;52.480;6.056;2023-04-26T15:02:58;101955.09;;;10.41;100.00
60015;BME280;45867;52.480;6.056;2023-04-26T15:05:24;101954.94;;;10.19;100.00
60015;BME280;45867;52.480;6.056;2023-04-26T15:07:49;101957.31;;;9.92;100.00
60015;BME280;45867;52.480;6.056;2023-04-26T15:10:16;101971.59;;;9.91;100.00
60015;BME280;45867;52.480;6.056;2023-04-26T15:12:41;101953.66;;;9.69;100.00
60015;BME280;45867;52.480;6.056;2023-04-26T15:15:07;101969.75;;;9.68;100.00
60015;BME280;45867;52.480;6.056;2023-04-26T15:17:35;101958.28;;;9.50;100.00
60015;BME280;45867;52.480;6.056;2023-04-26T15:20:00;101958.16;;;9.33;100.00
60015;BME280;45867;52.480;6.056;2023-04-26T15:22:29;101967.34;;;9.43;100.00
60015;BME280;45867;52.480;6.056;2023-04-26T15:24:58;101954.34;;;9.29;100.00
60015;BME280;45867;52.480;6.056;2023-04-26T15:27:24;101952.06;;;9.45;100.00
60015;BME280;45867;52.480;6.056;2023-04-26T15:29:49;101957.31;;;9.68;100.00
60015;BME280;45867;52.480;6.056;2023-04-26T15:32:15;101954.13;;;9.54;100.00
60015;BME280;45867;52.480;6.056;2023-04-26T15:34:41;101966.50;;;9.89;100.00
60015;BME280;45867;52.480;6.056;2023-04-26T15:37:10;101951.22;;;9.80;100.00
60015;BME280;45867;52.480;6.056;2023-04-26T15:39:43;101965.16;;;9.75;100.00
60015;BME280;45867;52.480;6.056;2023-04-26T15:42:12;101946.50;;;9.93;100.00
60015;BME280;45867;52.480;6.056;2023-04-26T15:44:37;101967.81;;;9.51;100.00